TimeEDT,TemperatureF,Dew PointF,Humidity,Sea Level PressureIn,VisibilityMPH,Wind Direction,Wind SpeedMPH,Gust SpeedMPH,PrecipitationIn,Events,Conditions,WindDirDegrees,DateUTC
12:53 AM,73.0,63.0,71,30.12,10.0,NE,8.1,-,N/A,,Partly Cloudy,50,2013-09-17 04:53:00
1:53 AM,73.0,63.0,71,30.13,10.0,NE,12.7,-,N/A,,Mostly Cloudy,50,2013-09-17 05:53:00
2:53 AM,71.1,63.0,75,30.15,10.0,NE,15.0,-,N/A,,Partly Cloudy,50,2013-09-17 06:53:00
3:53 AM,70.0,62.1,76,30.14,10.0,ENE,13.8,-,N/A,,Mostly Cloudy,60,2013-09-17 07:53:00
4:53 AM,70.0,60.1,71,30.15,10.0,NE,13.8,-,N/A,,Overcast,50,2013-09-17 08:53:00
5:53 AM,69.1,60.1,73,30.17,10.0,NE,10.4,-,N/A,,Overcast,40,2013-09-17 09:53:00
6:53 AM,68.0,57.9,70,30.19,10.0,NE,9.2,-,N/A,,Overcast,40,2013-09-17 10:53:00
7:53 AM,68.0,57.9,70,30.22,10.0,NE,6.9,-,N/A,,Overcast,40,2013-09-17 11:53:00
8:53 AM,69.1,59.0,70,30.24,10.0,NE,10.4,-,N/A,,Overcast,50,2013-09-17 12:53:00
9:53 AM,71.1,59.0,66,30.25,10.0,ENE,15.0,-,N/A,,Mostly Cloudy,60,2013-09-17 13:53:00
10:53 AM,73.9,57.0,55,30.26,10.0,ENE,16.1,-,N/A,,Partly Cloudy,70,2013-09-17 14:53:00
11:53 AM,75.0,57.0,53,30.26,10.0,ENE,11.5,19.6,N/A,,Clear,60,2013-09-17 15:53:00
12:53 PM,78.1,55.9,46,30.25,10.0,ENE,13.8,-,N/A,,Clear,60,2013-09-17 16:53:00
1:53 PM,79.0,55.9,45,30.23,10.0,NE,12.7,-,N/A,,Clear,40,2013-09-17 17:53:00
2:53 PM,80.1,55.9,43,30.21,10.0,East,15.0,20.7,N/A,,Clear,80,2013-09-17 18:53:00
3:53 PM,81.0,54.0,39,30.19,10.0,NE,13.8,20.7,N/A,,Clear,50,2013-09-17 19:53:00
4:53 PM,81.0,54.0,39,30.19,10.0,NE,13.8,-,N/A,,Clear,50,2013-09-17 20:53:00
5:53 PM,78.1,52.0,40,30.19,10.0,NE,9.2,-,N/A,,Mostly Cloudy,50,2013-09-17 21:53:00
6:53 PM,73.9,54.0,50,30.19,10.0,NE,6.9,-,N/A,,Scattered Clouds,40,2013-09-17 22:53:00
7:53 PM,70.0,55.0,59,30.19,10.0,NE,8.1,-,N/A,,Clear,40,2013-09-17 23:53:00
8:53 PM,68.0,55.0,63,30.21,10.0,NE,9.2,-,N/A,,Clear,40,2013-09-18 00:53:00
9:53 PM,68.0,55.0,63,30.22,10.0,NE,9.2,-,N/A,,Clear,40,2013-09-18 01:53:00
10:53 PM,64.0,55.9,75,30.23,10.0,NE,6.9,-,N/A,,Clear,50,2013-09-18 02:53:00
11:53 PM,62.1,55.9,80,30.24,10.0,ENE,5.8,-,N/A,,Clear,60,2013-09-18 03:53:00